sensor_id;sensor_type;location;lat;lon;timestamp;pressure;altitude;pressure_sealevel;temperature;humidity
41106;BME280;74159;52.530;13.188;2024-01-06T00:02:00;100151.84;;;0.57;85.17
41106;BME280;74159;52.530;13.188;2024-01-06T00:04:26;100156.00;;;0.59;85.22
41106;BME280;74159;52.530;13.188;2024-01-06T00:06:52;100154.25;;;0.65;84.98
41106;BME280;74159;52.530;13.188;2024-01-06T00:09:17;100153.50;;;0.58;85.67
41106;BME280;74159;52.530;13.188;2024-01-06T00:11:42;100155.75;;;0.61;85.21
41106;BME280;74159;52.530;13.188;2024-01-06T00:14:08;100155.53;;;0.63;85.52
41106;BME280;74159;52.530;13.188;2024-01-06T00:16:33;100158.47;;;0.61;85.04
41106;BME280;74159;52.530;13.188;2024-01-06T00:18:58;100152.59;;;0.64;85.08
41106;BME280;74159;52.530;13.188;2024-01-06T00:21:24;100150.16;;;0.56;85.21
41106;BME280;74159;52.530;13.188;2024-01-06T00:23:50;100159.84;;;0.52;85.32
41106;BME280;74159;52.530;13.188;2024-01-06T00:26:15;100167.78;;;0.53;85.60
41106;BME280;74159;52.530;13.188;2024-01-06T00:28:40;100173.53;;;0.64;85.42
41106;BME280;74159;52.530;13.188;2024-01-06T00:31:06;100170.75;;;0.70;85.17
41106;BME280;74159;52.530;13.188;2024-01-06T00:33:31;100166.19;;;0.64;85.03
41106;BME280;74159;52.530;13.188;2024-01-06T00:35:56;100166.41;;;0.63;85.26
41106;BME280;74159;52.530;13.188;2024-01-06T00:38:21;100161.06;;;0.56;85.26
41106;BME280;74159;52.530;13.188;2024-01-06T00:40:46;100167.09;;;0.58;84.96
41106;BME280;74159;52.530;13.188;2024-01-06T00:43:12;100167.25;;;0.63;84.78
41106;BME280;74159;52.530;13.188;2024-01-06T00:45:37;100167.69;;;0.60;85.22
41106;BME280;74159;52.530;13.188;2024-01-06T00:48:03;100173.16;;;0.60;85.24
41106;BME280;74159;52.530;13.188;2024-01-06T00:50:28;100174.06;;;0.54;85.20
41106;BME280;74159;52.530;13.188;2024-01-06T00:52:53;100172.38;;;0.53;85.12
41106;BME280;74159;52.530;13.188;2024-01-06T00:55:19;100175.72;;;0.55;85.05
41106;BME280;74159;52.530;13.188;2024-01-06T00:57:44;100173.91;;;0.67;85.07
41106;BME280;74159;52.530;13.188;2024-01-06T01:00:09;100175.25;;;0.58;84.81
41106;BME280;74159;52.530;13.188;2024-01-06T01:02:35;100184.78;;;0.67;84.89
41106;BME280;74159;52.530;13.188;2024-01-06T01:05:00;100175.59;;;0.68;84.71
41106;BME280;74159;52.530;13.188;2024-01-06T01:07:26;100188.25;;;0.56;84.66
41106;BME280;74159;52.530;13.188;2024-01-06T01:09:52;100189.13;;;0.50;84.83
41106;BME280;74159;52.530;13.188;2024-01-06T01:12:17;100189.59;;;0.47;84.61
41106;BME280;74159;52.530;13.188;2024-01-06T01:14:42;100193.97;;;0.48;84.70
41106;BME280;74159;52.530;13.188;2024-01-06T01:17:08;100209.66;;;0.52;84.81
41106;BME280;74159;52.530;13.188;2024-01-06T01:19:33;100202.13;;;0.48;84.88
41106;BME280;74159;52.530;13.188;2024-01-06T01:21:58;100198.34;;;0.49;84.35
41106;BME280;74159;52.530;13.188;2024-01-06T01:24:23;100205.34;;;0.63;84.64
41106;BME280;74159;52.530;13.188;2024-01-06T01:26:49;100213.81;;;0.55;84.45
41106;BME280;74159;52.530;13.188;2024-01-06T01:29:14;100209.41;;;0.54;84.09
41106;BME280;74159;52.530;13.188;2024-01-06T01:31:39;100217.84;;;0.46;84.53
41106;BME280;74159;52.530;13.188;2024-01-06T01:34:04;100216.19;;;0.45;84.51
41106;BME280;74159;52.530;13.188;2024-01-06T01:36:30;100209.69;;;0.46;84.50
41106;BME280;74159;52.530;13.188;2024-01-06T01:38:55;100216.34;;;0.50;83.96
41106;BME280;74159;52.530;13.188;2024-01-06T01:41:20;100215.72;;;0.48;84.60
41106;BME280;74159;52.530;13.188;2024-01-06T01:43:45;100214.19;;;0.58;84.42
41106;BME280;74159;52.530;13.188;2024-01-06T01:46:11;100205.03;;;0.53;84.02
41106;BME280;74159;52.530;13.188;2024-01-06T01:48:36;100203.31;;;0.58;84.27
41106;BME280;74159;52.530;13.188;2024-01-06T01:51:01;100213.91;;;0.42;84.35
41106;BME280;74159;52.530;13.188;2024-01-06T01:53:27;100213.47;;;0.45;84.57
41106;BME280;74159;52.530;13.188;2024-01-06T01:55:52;100215.72;;;0.48;83.95
41106;BME280;74159;52.530;13.188;2024-01-06T01:58:18;100218.06;;;0.44;84.28
41106;BME280;74159;52.530;13.188;2024-01-06T02:00:43;100227.97;;;0.39;84.40
41106;BME280;74159;52.530;13.188;2024-01-06T02:03:09;100229.19;;;0.43;84.81
41106;BME280;74159;52.530;13.188;2024-01-06T02:05:34;100224.34;;;0.45;84.87
41106;BME280;74159;52.530;13.188;2024-01-06T02:07:59;100233.56;;;0.44;84.47
41106;BME280;74159;52.530;13.188;2024-01-06T02:10:24;100237.72;;;0.46;84.81
41106;BME280;74159;52.530;13.188;2024-01-06T02:12:50;100239.84;;;0.44;84.64
41106;BME280;74159;52.530;13.188;2024-01-06T02:15:16;100246.09;;;0.45;84.47
41106;BME280;74159;52.530;13.188;2024-01-06T02:17:42;100241.03;;;0.48;84.61
41106;BME280;74159;52.530;13.188;2024-01-06T02:20:08;100234.84;;;0.41;84.66
41106;BME280;74159;52.530;13.188;2024-01-06T02:22:35;100247.59;;;0.41;84.40
41106;BME280;74159;52.530;13.188;2024-01-06T02:25:01;100243.22;;;0.40;84.16
41106;BME280;74159;52.530;13.188;2024-01-06T02:27:26;100238.09;;;0.50;84.40
41106;BME280;74159;52.530;13.188;2024-01-06T02:29:51;100235.22;;;0.45;84.11
41106;BME280;74159;52.530;13.188;2024-01-06T02:32:16;100235.81;;;0.47;84.16
41106;BME280;74159;52.530;13.188;2024-01-06T02:34:41;100242.00;;;0.36;84.62
41106;BME280;74159;52.530;13.188;2024-01-06T02:37:07;100239.44;;;0.41;84.42
41106;BME280;74159;52.530;13.188;2024-01-06T02:39:32;100243.22;;;0.40;84.25
41106;BME280;74159;52.530;13.188;2024-01-06T02:41:57;100250.94;;;0.43;84.42
41106;BME280;74159;52.530;13.188;2024-01-06T02:44:22;100254.88;;;0.47;84.72
41106;BME280;74159;52.530;13.188;2024-01-06T02:46:48;100256.22;;;0.38;84.60
41106;BME280;74159;52.530;13.188;2024-01-06T02:49:13;100255.78;;;0.41;84.18
41106;BME280;74159;52.530;13.188;2024-01-06T02:51:38;100252.34;;;0.52;83.95
41106;BME280;74159;52.530;13.188;2024-01-06T02:54:03;100250.31;;;0.41;84.26
41106;BME280;74159;52.530;13.188;2024-01-06T02:56:29;100252.22;;;0.40;84.08
41106;BME280;74159;52.530;13.188;2024-01-06T02:58:54;100256.22;;;0.38;84.07
41106;BME280;74159;52.530;13.188;2024-01-06T03:01:19;100259.56;;;0.33;84.17
41106;BME280;74159;52.530;13.188;2024-01-06T03:03:45;100261.69;;;0.31;84.00
41106;BME280;74159;52.530;13.188;2024-01-06T03:06:10;100260.03;;;0.30;84.22
41106;BME280;74159;52.530;13.188;2024-01-06T03:08:35;100264.41;;;0.31;84.31
41106;BME280;74159;52.530;13.188;2024-01-06T03:11:01;100267.97;;;0.32;84.01
41106;BME280;74159;52.530;13.188;2024-01-06T03:13:28;100265.28;;;0.25;84.06
41106;BME280;74159;52.530;13.188;2024-01-06T03:15:53;100260.97;;;0.17;84.36
41106;BME280;74159;52.530;13.188;2024-01-06T03:18:18;100263.03;;;0.22;84.67
41106;BME280;74159;52.530;13.188;2024-01-06T03:20:43;100266.41;;;0.17;84.56
41106;BME280;74159;52.530;13.188;2024-01-06T03:23:09;100256.75;;;0.21;84.66
41106;BME280;74159;52.530;13.188;2024-01-06T03:25:34;100268.06;;;0.18;84.49
41106;BME280;74159;52.530;13.188;2024-01-06T03:27:59;100265.06;;;0.26;84.47
41106;BME280;74159;52.530;13.188;2024-01-06T03:30:24;100271.84;;;0.17;84.43
41106;BME280;74159;52.530;13.188;2024-01-06T03:32:50;100275.59;;;0.16;84.57
41106;BME280;74159;52.530;13.188;2024-01-06T03:35:15;100275.06;;;0.33;84.08
41106;BME280;74159;52.530;13.188;2024-01-06T03:37:40;100280.00;;;0.17;84.15
41106;BME280;74159;52.530;13.188;2024-01-06T03:40:06;100291.03;;;0.22;84.35
41106;BME280;74159;52.530;13.188;2024-01-06T03:42:31;100290.88;;;0.17;83.76
41106;BME280;74159;52.530;13.188;2024-01-06T03:44:57;100298.63;;;0.14;84.38
41106;BME280;74159;52.530;13.188;2024-01-06T03:47:22;100300.28;;;0.15;84.39
41106;BME280;74159;52.530;13.188;2024-01-06T03:49:47;100305.41;;;0.29;83.88
41106;BME280;74159;52.530;13.188;2024-01-06T03:52:13;100304.41;;;0.24;84.30
41106;BME280;74159;52.530;13.188;2024-01-06T03:54:39;100315.69;;;0.27;83.83
41106;BME280;74159;52.530;13.188;2024-01-06T03:57:04;100303.41;;;0.18;83.97
41106;BME280;74159;52.530;13.188;2024-01-06T03:59:29;100291.50;;;0.19;83.78
41106;BME280;74159;52.530;13.188;2024-01-06T04:01:54;100302.75;;;0.23;84.16
41106;BME280;74159;52.530;13.188;2024-01-06T04:04:19;100302.78;;;0.16;84.38
41106;BME280;74159;52.530;13.188;2024-01-06T04:06:45;100305.69;;;0.21;84.18
41106;BME280;74159;52.530;13.188;2024-01-06T04:09:10;100308.63;;;0.20;84.38
41106;BME280;74159;52.530;13.188;2024-01-06T04:11:35;100307.34;;;0.22;83.99
41106;BME280;74159;52.530;13.188;2024-01-06T04:14:01;100319.91;;;0.23;84.24
41106;BME280;74159;52.530;13.188;2024-01-06T04:16:26;100319.91;;;0.23;83.66
41106;BME280;74159;52.530;13.188;2024-01-06T04:18:52;100328.06;;;0.23;84.48
41106;BME280;74159;52.530;13.188;2024-01-06T04:21:17;100322.34;;;0.32;84.20
41106;BME280;74159;52.530;13.188;2024-01-06T04:23:42;100324.53;;;0.16;84.43
41106;BME280;74159;52.530;13.188;2024-01-06T04:26:08;100328.50;;;0.20;84.03
41106;BME280;74159;52.530;13.188;2024-01-06T04:28:33;100339.34;;;0.27;84.25
41106;BME280;74159;52.530;13.188;2024-01-06T04:30:58;100324.91;;;0.26;84.05
41106;BME280;74159;52.530;13.188;2024-01-06T04:33:23;100331.22;;;0.20;84.45
41106;BME280;74159;52.530;13.188;2024-01-06T04:35:49;100327.44;;;0.21;84.06
41106;BME280;74159;52.530;13.188;2024-01-06T04:38:15;100326.22;;;0.17;84.48
41106;BME280;74159;52.530;13.188;2024-01-06T04:40:40;100326.84;;;0.19;84.49
41106;BME280;74159;52.530;13.188;2024-01-06T04:43:06;100333.34;;;0.18;84.47
41106;BME280;74159;52.530;13.188;2024-01-06T04:45:31;100333.94;;;0.20;84.63
41106;BME280;74159;52.530;13.188;2024-01-06T04:47:56;100338.78;;;0.18;84.75
41106;BME280;74159;52.530;13.188;2024-01-06T04:50:21;100335.16;;;0.24;84.31
41106;BME280;74159;52.530;13.188;2024-01-06T04:52:46;100333.72;;;0.22;84.66
41106;BME280;74159;52.530;13.188;2024-01-06T04:55:12;100334.56;;;0.22;84.83
41106;BME280;74159;52.530;13.188;2024-01-06T04:57:37;100342.88;;;0.27;84.89
41106;BME280;74159;52.530;13.188;2024-01-06T05:00:03;100339.50;;;0.32;84.57
41106;BME280;74159;52.530;13.188;2024-01-06T05:02:28;100342.94;;;0.21;84.64
41106;BME280;74159;52.530;13.188;2024-01-06T05:04:54;100345.44;;;0.22;84.75
41106;BME280;74159;52.530;13.188;2024-01-06T05:07:19;100344.22;;;0.18;84.80
41106;BME280;74159;52.530;13.188;2024-01-06T05:09:44;100341.28;;;0.13;84.72
41106;BME280;74159;52.530;13.188;2024-01-06T05:12:09;100345.25;;;0.17;84.93
41106;BME280;74159;52.530;13.188;2024-01-06T05:14:35;100345.44;;;0.16;84.65
41106;BME280;74159;52.530;13.188;2024-01-06T05:17:00;100353.41;;;0.17;84.68
41106;BME280;74159;52.530;13.188;2024-01-06T05:19:25;100360.13;;;0.08;84.58
41106;BME280;74159;52.530;13.188;2024-01-06T05:21:50;100357.16;;;0.16;84.56
41106;BME280;74159;52.530;13.188;2024-01-06T05:24:16;100360.94;;;0.15;84.50
41106;BME280;74159;52.530;13.188;2024-01-06T05:26:42;100369.53;;;0.12;84.78
41106;BME280;74159;52.530;13.188;2024-01-06T05:29:07;100367.25;;;0.09;84.47
41106;BME280;74159;52.530;13.188;2024-01-06T05:31:32;100371.19;;;0.13;84.57
41106;BME280;74159;52.530;13.188;2024-01-06T05:33:57;100364.34;;;0.04;84.77
41106;BME280;74159;52.530;13.188;2024-01-06T05:36:23;100363.03;;;0.13;84.42
41106;BME280;74159;52.530;13.188;2024-01-06T05:38:48;100374.34;;;0.10;84.58
41106;BME280;74159;52.530;13.188;2024-01-06T05:41:13;100377.28;;;0.09;84.54
41106;BME280;74159;52.530;13.188;2024-01-06T05:43:38;100377.88;;;0.17;84.77
41106;BME280;74159;52.530;13.188;2024-01-06T05:46:04;100382.19;;;0.32;84.65
41106;BME280;74159;52.530;13.188;2024-01-06T05:48:29;100386.84;;;0.24;84.37
41106;BME280;74159;52.530;13.188;2024-01-06T05:50:54;100404.22;;;0.23;84.42
41106;BME280;74159;52.530;13.188;2024-01-06T05:53:19;100403.53;;;0.35;84.01
41106;BME280;74159;52.530;13.188;2024-01-06T05:55:44;100400.44;;;0.24;84.31
41106;BME280;74159;52.530;13.188;2024-01-06T05:58:10;100415.13;;;0.10;84.37
41106;BME280;74159;52.530;13.188;2024-01-06T06:00:35;100411.34;;;0.18;84.54
41106;BME280;74159;52.530;13.188;2024-01-06T06:03:00;100416.63;;;0.06;84.80
41106;BME280;74159;52.530;13.188;2024-01-06T06:05:25;100424.38;;;0.03;84.79
41106;BME280;74159;52.530;13.188;2024-01-06T06:07:51;100418.91;;;0.09;84.42
41106;BME280;74159;52.530;13.188;2024-01-06T06:10:16;100430.84;;;0.08;84.60
41106;BME280;74159;52.530;13.188;2024-01-06T06:12:43;100426.63;;;0.19;84.70
41106;BME280;74159;52.530;13.188;2024-01-06T06:15:09;100436.66;;;0.12;84.47
41106;BME280;74159;52.530;13.188;2024-01-06T06:17:34;100441.31;;;-0.02;84.41
41106;BME280;74159;52.530;13.188;2024-01-06T06:19:59;100454.25;;;0.09;84.35
41106;BME280;74159;52.530;13.188;2024-01-06T06:22:25;100456.78;;;0.04;84.63
41106;BME280;74159;52.530;13.188;2024-01-06T06:25:04;100464.25;;;0.15;84.35
41106;BME280;74159;52.530;13.188;2024-01-06T06:27:29;100458.88;;;-0.05;84.70
41106;BME280;74159;52.530;13.188;2024-01-06T06:29:55;100469.69;;;0.15;84.45
41106;BME280;74159;52.530;13.188;2024-01-06T06:32:21;100473.09;;;0.04;84.53
41106;BME280;74159;52.530;13.188;2024-01-06T06:34:46;100469.28;;;0.12;84.37
41106;BME280;74159;52.530;13.188;2024-01-06T06:37:11;100476.66;;;-0.09;84.54
41106;BME280;74159;52.530;13.188;2024-01-06T06:39:37;100465.56;;;-0.01;84.89
41106;BME280;74159;52.530;13.188;2024-01-06T06:42:02;100469.13;;;0.00;84.70
41106;BME280;74159;52.530;13.188;2024-01-06T06:44:27;100472.94;;;-0.14;84.74
41106;BME280;74159;52.530;13.188;2024-01-06T06:46:53;100471.25;;;-0.15;84.94
41106;BME280;74159;52.530;13.188;2024-01-06T06:49:18;100480.25;;;-0.15;84.61
41106;BME280;74159;52.530;13.188;2024-01-06T06:51:43;100488.19;;;-0.20;84.86
41106;BME280;74159;52.530;13.188;2024-01-06T06:54:13;100494.44;;;-0.19;85.03
41106;BME280;74159;52.530;13.188;2024-01-06T06:56:38;100509.50;;;-0.23;84.95
41106;BME280;74159;52.530;13.188;2024-01-06T06:59:03;100501.97;;;-0.21;84.85
41106;BME280;74159;52.530;13.188;2024-01-06T07:01:29;100519.53;;;-0.17;84.62
41106;BME280;74159;52.530;13.188;2024-01-06T07:03:56;100515.78;;;-0.16;84.98
41106;BME280;74159;52.530;13.188;2024-01-06T07:06:21;100509.09;;;-0.14;84.70
41106;BME280;74159;52.530;13.188;2024-01-06T07:08:46;100524.97;;;-0.24;84.65
41106;BME280;74159;52.530;13.188;2024-01-06T07:11:11;100533.97;;;-0.10;84.70
41106;BME280;74159;52.530;13.188;2024-01-06T07:13:40;100532.94;;;-0.16;84.57
41106;BME280;74159;52.530;13.188;2024-01-06T07:16:05;100534.19;;;-0.12;84.52
41106;BME280;74159;52.530;13.188;2024-01-06T07:18:30;100545.69;;;-0.16;84.36
41106;BME280;74159;52.530;13.188;2024-01-06T07:20:55;100542.53;;;-0.20;84.41
41106;BME280;74159;52.530;13.188;2024-01-06T07:23:21;100537.13;;;-0.26;84.69
41106;BME280;74159;52.530;13.188;2024-01-06T07:25:46;100552.97;;;-0.37;84.97
41106;BME280;74159;52.530;13.188;2024-01-06T07:28:11;100551.72;;;-0.34;84.62
41106;BME280;74159;52.530;13.188;2024-01-06T07:30:37;100555.09;;;-0.25;84.61
41106;BME280;74159;52.530;13.188;2024-01-06T07:33:02;100560.09;;;-0.29;84.99
41106;BME280;74159;52.530;13.188;2024-01-06T07:35:27;100561.16;;;-0.23;84.88
41106;BME280;74159;52.530;13.188;2024-01-06T07:37:54;100576.41;;;-0.49;85.04
41106;BME280;74159;52.530;13.188;2024-01-06T07:40:19;100568.03;;;-0.54;85.43
41106;BME280;74159;52.530;13.188;2024-01-06T07:42:44;100566.34;;;-0.55;85.55
41106;BME280;74159;52.530;13.188;2024-01-06T07:45:09;100574.69;;;-0.56;85.25
41106;BME280;74159;52.530;13.188;2024-01-06T07:47:35;100586.00;;;-0.53;85.79
41106;BME280;74159;52.530;13.188;2024-01-06T07:50:00;100579.75;;;-0.47;85.29
41106;BME280;74159;52.530;13.188;2024-01-06T07:52:25;100582.47;;;-0.40;84.75
41106;BME280;74159;52.530;13.188;2024-01-06T07:54:50;100579.72;;;-0.53;85.33
41106;BME280;74159;52.530;13.188;2024-01-06T07:57:16;100597.69;;;-0.52;85.70
41106;BME280;74159;52.530;13.188;2024-01-06T07:59:41;100602.72;;;-0.43;84.92
41106;BME280;74159;52.530;13.188;2024-01-06T08:02:06;100606.50;;;-0.44;85.21
41106;BME280;74159;52.530;13.188;2024-01-06T08:04:32;100609.00;;;-0.36;85.11
41106;BME280;74159;52.530;13.188;2024-01-06T08:06:57;100603.16;;;-0.46;85.08
41106;BME280;74159;52.530;13.188;2024-01-06T08:09:22;100612.34;;;-0.47;85.24
41106;BME280;74159;52.530;13.188;2024-01-06T08:11:48;100619.03;;;-0.36;85.34
41106;BME280;74159;52.530;13.188;2024-01-06T08:14:14;100622.16;;;-0.46;85.43
41106;BME280;74159;52.530;13.188;2024-01-06T08:16:39;100624.66;;;-0.38;84.79
41106;BME280;74159;52.530;13.188;2024-01-06T08:19:04;100616.94;;;-0.47;85.21
41106;BME280;74159;52.530;13.188;2024-01-06T08:21:29;100624.66;;;-0.51;85.40
41106;BME280;74159;52.530;13.188;2024-01-06T08:23:55;100640.75;;;-0.43;85.16
41106;BME280;74159;52.530;13.188;2024-01-06T08:26:20;100642.03;;;-0.39;84.96
41106;BME280;74159;52.530;13.188;2024-01-06T08:28:46;100638.03;;;-0.43;84.93
41106;BME280;74159;52.530;13.188;2024-01-06T08:31:11;100644.50;;;-0.57;85.35
41106;BME280;74159;52.530;13.188;2024-01-06T08:33:36;100645.16;;;-0.42;84.66
41106;BME280;74159;52.530;13.188;2024-01-06T08:36:02;100646.81;;;-0.41;85.00
41106;BME280;74159;52.530;13.188;2024-01-06T08:38:27;100656.66;;;-0.46;85.01
41106;BME280;74159;52.530;13.188;2024-01-06T08:40:52;100662.28;;;-0.48;84.80
41106;BME280;74159;52.530;13.188;2024-01-06T08:43:18;100670.19;;;-0.53;84.81
41106;BME280;74159;52.530;13.188;2024-01-06T08:45:43;100659.78;;;-0.43;85.03
41106;BME280;74159;52.530;13.188;2024-01-06T08:48:10;100674.81;;;-0.47;84.86
41106;BME280;74159;52.530;13.188;2024-01-06T08:50:37;100682.09;;;-0.54;84.70
41106;BME280;74159;52.530;13.188;2024-01-06T08:53:02;100680.72;;;-0.30;84.11
41106;BME280;74159;52.530;13.188;2024-01-06T08:55:27;100687.78;;;-0.36;83.70
41106;BME280;74159;52.530;13.188;2024-01-06T08:57:53;100696.34;;;-0.39;83.89
41106;BME280;74159;52.530;13.188;2024-01-06T09:00:18;100699.31;;;-0.34;83.51
41106;BME280;74159;52.530;13.188;2024-01-06T09:02:43;100696.84;;;-0.15;83.86
41106;BME280;74159;52.530;13.188;2024-01-06T09:05:08;100702.25;;;-0.28;83.34
41106;BME280;74159;52.530;13.188;2024-01-06T09:07:33;100704.72;;;-0.40;83.98
41106;BME280;74159;52.530;13.188;2024-01-06T09:09:59;100705.97;;;-0.36;84.16
41106;BME280;74159;52.530;13.188;2024-01-06T09:12:24;100713.91;;;-0.48;83.83
41106;BME280;74159;52.530;13.188;2024-01-06T09:14:49;100716.22;;;-0.45;83.90
41106;BME280;74159;52.530;13.188;2024-01-06T09:17:14;100716.00;;;-0.50;84.33
41106;BME280;74159;52.530;13.188;2024-01-06T09:19:40;100728.13;;;-0.46;84.12
41106;BME280;74159;52.530;13.188;2024-01-06T09:22:05;100729.59;;;-0.43;83.90
41106;BME280;74159;52.530;13.188;2024-01-06T09:24:30;100725.19;;;-0.44;83.66
41106;BME280;74159;52.530;13.188;2024-01-06T09:26:56;100737.75;;;-0.37;83.85
41106;BME280;74159;52.530;13.188;2024-01-06T09:29:23;100741.75;;;-0.33;82.98
41106;BME280;74159;52.530;13.188;2024-01-06T09:31:48;100751.09;;;-0.48;83.67
41106;BME280;74159;52.530;13.188;2024-01-06T09:34:14;100742.91;;;-0.55;83.37
41106;BME280;74159;52.530;13.188;2024-01-06T09:36:39;100735.00;;;-0.50;83.21
41106;BME280;74159;52.530;13.188;2024-01-06T09:39:04;100732.91;;;-0.48;83.19
41106;BME280;74159;52.530;13.188;2024-01-06T09:41:30;100744.34;;;-0.59;83.84
41106;BME280;74159;52.530;13.188;2024-01-06T09:43:55;100755.50;;;-0.47;83.31
41106;BME280;74159;52.530;13.188;2024-01-06T09:46:23;100750.47;;;-0.50;83.35
41106;BME280;74159;52.530;13.188;2024-01-06T09:48:49;100752.91;;;-0.62;83.65
41106;BME280;74159;52.530;13.188;2024-01-06T09:51:16;100752.91;;;-0.62;83.16
41106;BME280;74159;52.530;13.188;2024-01-06T09:53:48;100754.81;;;-0.56;83.10
41106;BME280;74159;52.530;13.188;2024-01-06T09:56:14;100763.25;;;-0.38;83.17
41106;BME280;74159;52.530;13.188;2024-01-06T09:58:40;100766.69;;;-0.64;83.42
41106;BME280;74159;52.530;13.188;2024-01-06T10:01:06;100775.50;;;-0.55;83.11
41106;BME280;74159;52.530;13.188;2024-01-06T10:03:32;100763.25;;;-0.38;82.76
41106;BME280;74159;52.530;13.188;2024-01-06T10:05:59;100772.38;;;-0.52;82.21
41106;BME280;74159;52.530;13.188;2024-01-06T10:08:28;100774.66;;;-0.62;82.54
41106;BME280;74159;52.530;13.188;2024-01-06T10:10:54;100776.94;;;-0.66;82.79
41106;BME280;74159;52.530;13.188;2024-01-06T10:13:19;100777.81;;;-0.52;82.49
41106;BME280;74159;52.530;13.188;2024-01-06T10:15:44;100786.13;;;-0.67;82.50
41106;BME280;74159;52.530;13.188;2024-01-06T10:18:09;100790.81;;;-0.41;81.83
41106;BME280;74159;52.530;13.188;2024-01-06T10:20:35;100789.50;;;-0.58;82.47
41106;BME280;74159;52.530;13.188;2024-01-06T10:23:04;100787.38;;;-0.63;82.54
41106;BME280;74159;52.530;13.188;2024-01-06T10:25:29;100788.63;;;-0.65;82.47
41106;BME280;74159;52.530;13.188;2024-01-06T10:27:54;100781.91;;;-0.69;82.21
41106;BME280;74159;52.530;13.188;2024-01-06T10:30:20;100781.25;;;-0.71;82.39
41106;BME280;74159;52.530;13.188;2024-01-06T10:32:45;100781.94;;;-0.63;82.63
41106;BME280;74159;52.530;13.188;2024-01-06T10:35:10;100776.72;;;-0.64;82.26
41106;BME280;74159;52.530;13.188;2024-01-06T10:37:36;100783.84;;;-0.63;81.98
41106;BME280;74159;52.530;13.188;2024-01-06T10:40:12;100786.13;;;-0.60;82.26
41106;BME280;74159;52.530;13.188;2024-01-06T10:42:38;100781.13;;;-0.63;82.14
41106;BME280;74159;52.530;13.188;2024-01-06T10:45:06;100790.53;;;-0.59;81.66
41106;BME280;74159;52.530;13.188;2024-01-06T10:47:33;100789.97;;;-0.48;81.87
41106;BME280;74159;52.530;13.188;2024-01-06T10:49:59;100797.41;;;-0.63;81.89
41106;BME280;74159;52.530;13.188;2024-01-06T10:52:24;100792.06;;;-0.43;81.62
41106;BME280;74159;52.530;13.188;2024-01-06T10:54:52;100789.47;;;-0.65;82.03
41106;BME280;74159;52.530;13.188;2024-01-06T10:57:18;100790.72;;;-0.67;82.10
41106;BME280;74159;52.530;13.188;2024-01-06T10:59:44;100785.91;;;-0.65;81.79
41106;BME280;74159;52.530;13.188;2024-01-06T11:02:10;100786.25;;;-0.75;81.91
41106;BME280;74159;52.530;13.188;2024-01-06T11:04:37;100776.88;;;-0.72;82.46
41106;BME280;74159;52.530;13.188;2024-01-06T11:07:02;100790.03;;;-0.69;82.13
41106;BME280;74159;52.530;13.188;2024-01-06T11:09:29;100793.38;;;-0.74;82.82
41106;BME280;74159;52.530;13.188;2024-01-06T11:11:56;100794.91;;;-0.58;81.92
41106;BME280;74159;52.530;13.188;2024-01-06T11:14:23;100793.16;;;-0.72;82.30
41106;BME280;74159;52.530;13.188;2024-01-06T11:16:49;100790.72;;;-0.67;81.94
41106;BME280;74159;52.530;13.188;2024-01-06T11:22:17;100794.84;;;-0.71;81.71
41106;BME280;74159;52.530;13.188;2024-01-06T11:24:42;100801.94;;;-0.70;82.03
41106;BME280;74159;52.530;13.188;2024-01-06T11:27:16;100804.19;;;-0.46;81.42
41106;BME280;74159;52.530;13.188;2024-01-06T11:29:43;100803.28;;;-0.53;81.80
41106;BME280;74159;52.530;13.188;2024-01-06T11:34:53;100808.69;;;-0.66;81.33
41106;BME280;74159;52.530;13.188;2024-01-06T11:37:20;100803.38;;;-0.81;81.77
41106;BME280;74159;52.530;13.188;2024-01-06T11:39:48;100802.34;;;-0.73;81.83
41106;BME280;74159;52.530;13.188;2024-01-06T11:42:15;100804.88;;;-0.31;81.12
41106;BME280;74159;52.530;13.188;2024-01-06T11:44:42;100789.50;;;-0.51;80.96
41106;BME280;74159;52.530;13.188;2024-01-06T11:47:08;100799.09;;;-0.55;81.73
41106;BME280;74159;52.530;13.188;2024-01-06T11:49:36;100797.00;;;-0.60;81.28
41106;BME280;74159;52.530;13.188;2024-01-06T11:52:02;100792.31;;;-0.79;81.64
41106;BME280;74159;52.530;13.188;2024-01-06T11:54:27;100798.81;;;-0.74;81.63
41106;BME280;74159;52.530;13.188;2024-01-06T11:56:52;100797.75;;;-0.79;81.81
41106;BME280;74159;52.530;13.188;2024-01-06T11:59:19;100797.81;;;-0.66;81.74
41106;BME280;74159;52.530;13.188;2024-01-06T12:01:45;100811.09;;;-0.78;81.80
41106;BME280;74159;52.530;13.188;2024-01-06T12:04:10;100806.13;;;-0.74;81.86
41106;BME280;74159;52.530;13.188;2024-01-06T12:06:38;100804.94;;;-0.65;81.87
41106;BME280;74159;52.530;13.188;2024-01-06T12:09:04;100793.28;;;-0.52;81.23
41106;BME280;74159;52.530;13.188;2024-01-06T12:11:30;100796.31;;;-0.69;81.34
41106;BME280;74159;52.530;13.188;2024-01-06T12:13:55;100794.44;;;-0.68;81.26
41106;BME280;74159;52.530;13.188;2024-01-06T12:16:20;100803.09;;;-0.86;81.57
41106;BME280;74159;52.530;13.188;2024-01-06T12:18:46;100800.44;;;-0.79;80.90
41106;BME280;74159;52.530;13.188;2024-01-06T12:21:11;100813.00;;;-0.78;81.23
41106;BME280;74159;52.530;13.188;2024-01-06T12:23:37;100818.81;;;-0.81;80.89
41106;BME280;74159;52.530;13.188;2024-01-06T12:26:02;100822.31;;;-0.87;81.11
41106;BME280;74159;52.530;13.188;2024-01-06T12:28:27;100824.63;;;-0.84;80.97
41106;BME280;74159;52.530;13.188;2024-01-06T12:30:53;100819.03;;;-0.83;80.54
41106;BME280;74159;52.530;13.188;2024-01-06T12:33:19;100819.66;;;-0.81;80.34
41106;BME280;74159;52.530;13.188;2024-01-06T12:35:45;100816.09;;;-0.81;80.94
41106;BME280;74159;52.530;13.188;2024-01-06T12:38:10;100816.09;;;-0.81;80.22
41106;BME280;74159;52.530;13.188;2024-01-06T12:40:35;100826.69;;;-0.86;80.58
41106;BME280;74159;52.530;13.188;2024-01-06T12:43:02;100830.84;;;-0.91;80.32